CheckWX is a tool to help pilots better visualize weather data.  It is not intended as a substitute for an official pre-flight weather briefing.

20:38:52 UTC

ESNG TAF
Gällivare Airport
Gällivare, Sweden
TAF ESNG 161730Z 1618/1621 14005KT 9999 BKN045 TEMPO 1618/1621 SHRA BKN040CB

Jul-16@
18:00 UTC

Jul-16 @ 18:00 UTC

Jul-16@
21:00 UTC

Jul-16 @ 21:00 UTC

TAF ESNG 161730Z 1618/1621 14005KT 9999 BKN045
Wind
  • 140° at 5 KTS
Cloud Levels
  • Broken at 4,500' AGL

Jul-16@
18:00 UTC

Jul-16 @ 18:00 UTC

Jul-16@
21:00 UTC

Jul-16 @ 21:00 UTC

TEMPO 1618/1621 SHRA BKN040CB

Temporary

Temporary Changes expected for less than half the time period

Conditions
Rain
Cloud Levels
  • Broken at 4,000' AGL